createdAt,value
2018-11-23T00:00:16.712Z,3.30
2018-11-23T00:02:45.887Z,3.30
2018-11-23T00:05:14.174Z,2.70
2018-11-23T00:07:42.825Z,2.80
2018-11-23T00:10:13.529Z,2.40
2018-11-23T00:12:41.743Z,2.10
2018-11-23T00:15:15.538Z,2.30
2018-11-23T00:17:43.712Z,2.30
2018-11-23T00:20:17.135Z,2.50
2018-11-23T00:22:45.231Z,2.50
2018-11-23T00:25:15.975Z,2.20
2018-11-23T00:27:44.338Z,2.10
2018-11-23T00:30:15.320Z,1.80
2018-11-23T00:32:44.203Z,2.00
2018-11-23T00:35:14.159Z,2.20
2018-11-23T00:37:43.038Z,2.30
2018-11-23T00:40:14.220Z,2.40
2018-11-23T00:42:42.745Z,2.30
2018-11-23T00:45:12.539Z,2.60
2018-11-23T00:47:41.015Z,2.60
2018-11-23T00:50:12.193Z,2.70
2018-11-23T00:52:41.024Z,2.90
2018-11-23T00:55:10.965Z,2.60
2018-11-23T00:57:39.218Z,2.40
2018-11-23T01:00:12.143Z,2.50
2018-11-23T01:02:40.343Z,2.40
2018-11-23T01:05:09.566Z,2.60
2018-11-23T01:07:37.914Z,2.70
2018-11-23T01:10:08.898Z,2.60
2018-11-23T01:12:36.965Z,2.60
2018-11-23T01:15:05.952Z,2.30
2018-11-23T01:17:34.247Z,2.60
2018-11-23T01:20:02.514Z,2.40
2018-11-23T01:22:30.680Z,2.40
2018-11-23T01:24:58.805Z,2.30
2018-11-23T01:27:27.042Z,2.20
2018-11-23T01:29:55.106Z,2.00
2018-11-23T01:32:23.686Z,1.50
2018-11-23T01:34:52.993Z,1.80
2018-11-23T01:37:21.281Z,1.60
2018-11-23T01:39:49.339Z,1.90
2018-11-23T01:42:17.608Z,1.40
2018-11-23T01:44:49.800Z,1.20
2018-11-23T01:47:20.132Z,1.30
2018-11-23T01:49:48.506Z,1.90
2018-11-23T01:52:16.621Z,1.90
2018-11-23T01:54:44.746Z,1.70
2018-11-23T01:57:12.869Z,1.20
2018-11-23T01:59:40.869Z,1.10
2018-11-23T02:02:09.795Z,1.20
2018-11-23T02:04:37.809Z,1.20
2018-11-23T02:07:06.191Z,1.00
2018-11-23T02:09:34.459Z,1.40
2018-11-23T02:12:02.706Z,1.90
2018-11-23T02:14:30.744Z,2.20
2018-11-23T02:16:58.830Z,2.10
2018-11-23T02:19:26.904Z,1.70
2018-11-23T02:21:55.106Z,1.80
2018-11-23T02:24:23.133Z,1.60
2018-11-23T02:26:51.223Z,1.80
2018-11-23T02:29:19.289Z,1.70
2018-11-23T02:31:47.453Z,1.60
2018-11-23T02:34:15.477Z,1.60
2018-11-23T02:36:43.496Z,1.50
2018-11-23T02:39:11.571Z,1.50
2018-11-23T02:41:39.639Z,1.20
2018-11-23T02:44:07.736Z,1.80
2018-11-23T02:46:35.823Z,1.90
2018-11-23T02:49:04.226Z,2.00
2018-11-23T02:51:32.312Z,1.90
2018-11-23T02:54:00.382Z,1.80
2018-11-23T02:56:47.825Z,1.70
2018-11-23T02:59:15.940Z,1.50
2018-11-23T03:01:43.979Z,1.60
2018-11-23T03:04:12.099Z,1.60
2018-11-23T03:06:40.161Z,1.70
2018-11-23T03:09:09.569Z,1.60
2018-11-23T03:11:39.422Z,1.50
2018-11-23T03:14:07.762Z,1.40
2018-11-23T03:16:36.165Z,1.00
2018-11-23T03:19:04.719Z,1.30
2018-11-23T03:21:32.767Z,1.60
2018-11-23T03:24:00.786Z,1.70
2018-11-23T03:26:28.841Z,1.70
2018-11-23T03:28:56.927Z,1.50
2018-11-23T03:31:25.624Z,1.70
2018-11-23T03:33:54.073Z,1.90
2018-11-23T03:36:22.987Z,1.90
2018-11-23T03:38:51.353Z,1.90
2018-11-23T03:41:19.427Z,2.00
2018-11-23T03:43:47.493Z,2.00
2018-11-23T03:46:15.602Z,1.90
2018-11-23T03:48:43.651Z,1.50
2018-11-23T03:51:11.818Z,1.40
2018-11-23T03:53:39.901Z,1.80
2018-11-23T03:56:08.009Z,2.00
2018-11-23T03:58:36.063Z,1.60
2018-11-23T04:01:04.298Z,1.60
2018-11-23T04:03:32.334Z,1.10
2018-11-23T04:06:00.362Z,1.20
2018-11-23T04:08:28.385Z,1.30
2018-11-23T04:10:56.372Z,1.50
2018-11-23T04:13:24.491Z,1.40
2018-11-23T04:15:52.586Z,1.00
2018-11-23T04:18:20.710Z,1.20
2018-11-23T04:20:54.503Z,1.50
2018-11-23T04:23:22.618Z,1.30
2018-11-23T04:25:51.296Z,0.90
2018-11-23T04:28:19.351Z,0.80
2018-11-23T04:30:47.403Z,1.00
2018-11-23T04:33:15.625Z,1.00
2018-11-23T04:35:43.697Z,1.20
2018-11-23T04:38:11.733Z,1.00
2018-11-23T04:40:39.802Z,0.90
2018-11-23T04:43:07.895Z,1.30
2018-11-23T04:45:35.891Z,1.20
2018-11-23T04:48:04.253Z,1.20
2018-11-23T04:50:32.303Z,1.40
2018-11-23T04:53:00.433Z,1.30
2018-11-23T04:55:28.465Z,1.20
2018-11-23T04:57:56.502Z,1.30
2018-11-23T05:00:24.565Z,1.50
2018-11-23T05:02:52.572Z,1.40
2018-11-23T05:05:20.675Z,1.40
2018-11-23T05:07:48.749Z,1.50
2018-11-23T05:10:18.066Z,1.60
2018-11-23T05:12:46.161Z,1.90
2018-11-23T05:15:15.593Z,1.70
2018-11-23T05:17:43.801Z,1.80
2018-11-23T05:20:12.619Z,2.00
2018-11-23T05:22:40.902Z,1.80
2018-11-23T05:25:11.206Z,1.60
2018-11-23T05:27:39.238Z,1.80
2018-11-23T05:30:13.657Z,1.80
2018-11-23T05:32:41.694Z,2.00
2018-11-23T05:35:11.198Z,1.90
2018-11-23T05:37:39.262Z,2.00
2018-11-23T05:40:12.249Z,1.80
2018-11-23T05:42:40.393Z,1.70
2018-11-23T05:45:11.986Z,1.50
2018-11-23T05:47:40.122Z,1.30
2018-11-23T05:50:13.184Z,1.40
2018-11-23T05:52:42.209Z,1.30
2018-11-23T05:55:10.787Z,1.40
2018-11-23T05:57:38.913Z,1.40
2018-11-23T06:00:11.034Z,1.40
2018-11-23T06:02:39.053Z,1.30
2018-11-23T06:05:07.561Z,1.10
2018-11-23T06:07:35.728Z,1.10
2018-11-23T06:10:06.012Z,0.90
2018-11-23T06:12:34.185Z,0.90
2018-11-23T06:15:02.325Z,0.40
2018-11-23T06:17:30.386Z,0.50
2018-11-23T06:19:58.421Z,0.80
2018-11-23T06:22:26.456Z,0.40
2018-11-23T06:24:54.965Z,0.30
2018-11-23T06:27:23.165Z,0.30
2018-11-23T06:29:51.223Z,0.50
2018-11-23T06:32:36.405Z,0.70
2018-11-23T06:35:05.134Z,0.90
2018-11-23T06:37:33.381Z,0.90
2018-11-23T06:40:01.546Z,0.90
2018-11-23T06:42:29.697Z,0.80
2018-11-23T06:44:57.909Z,0.80
2018-11-23T06:47:26.223Z,1.00
2018-11-23T06:49:54.372Z,1.00
2018-11-23T06:52:22.502Z,1.10
2018-11-23T06:54:50.705Z,1.00
2018-11-23T06:57:18.881Z,0.90
2018-11-23T06:59:46.958Z,0.90
2018-11-23T07:02:15.062Z,0.90
2018-11-23T07:04:43.125Z,0.80
2018-11-23T07:07:11.408Z,0.90
2018-11-23T07:09:39.490Z,0.80
2018-11-23T07:12:07.689Z,1.10
2018-11-23T07:14:35.830Z,1.30
2018-11-23T07:17:04.218Z,1.30
2018-11-23T07:19:32.352Z,1.30
2018-11-23T07:22:00.550Z,1.30
2018-11-23T07:24:28.791Z,1.60
2018-11-23T07:26:57.013Z,1.70
2018-11-23T07:29:25.496Z,1.50
2018-11-23T07:31:53.751Z,1.80
2018-11-23T07:34:22.892Z,2.10
2018-11-23T07:36:50.179Z,2.10
2018-11-23T07:39:35.356Z,1.90
2018-11-23T07:42:18.969Z,2.10
2018-11-23T07:44:47.157Z,2.10
2018-11-23T07:47:15.253Z,2.40
2018-11-23T07:49:44.329Z,1.90
2018-11-23T07:52:12.492Z,1.50
2018-11-23T07:54:40.592Z,1.80
2018-11-23T07:57:09.291Z,1.20
2018-11-23T07:59:37.710Z,1.60
2018-11-23T08:02:08.997Z,2.00
2018-11-23T08:04:38.361Z,2.50
2018-11-23T08:07:07.859Z,2.90
2018-11-23T08:09:36.167Z,3.20
2018-11-23T08:12:05.037Z,3.20
2018-11-23T08:14:33.230Z,3.40
2018-11-23T08:17:01.793Z,3.20
2018-11-23T08:19:30.073Z,3.20
2018-11-23T08:21:58.380Z,3.00
2018-11-23T08:24:27.192Z,3.10
2018-11-23T08:26:54.873Z,3.20
2018-11-23T08:29:22.903Z,3.10
2018-11-23T08:31:51.777Z,3.20
2018-11-23T08:34:19.893Z,3.60
2018-11-23T08:36:48.000Z,3.20
2018-11-23T08:39:16.121Z,3.30
2018-11-23T08:41:44.333Z,3.00
2018-11-23T08:44:12.535Z,3.00
2018-11-23T08:46:40.665Z,3.00
2018-11-23T08:49:08.892Z,3.00
2018-11-23T08:51:37.036Z,3.20
2018-11-23T08:54:05.281Z,3.10
2018-11-23T08:56:34.389Z,3.30
2018-11-23T08:59:02.692Z,3.10
2018-11-23T09:01:30.900Z,3.30
2018-11-23T09:03:59.033Z,3.80
2018-11-23T09:06:27.208Z,3.50
2018-11-23T09:08:55.496Z,3.80
2018-11-23T09:11:23.658Z,3.50
2018-11-23T09:13:52.064Z,3.60
2018-11-23T09:16:20.236Z,3.00
2018-11-23T09:18:48.535Z,2.80
2018-11-23T09:21:16.754Z,2.80
2018-11-23T09:23:44.967Z,3.40
2018-11-23T09:26:13.121Z,2.80
2018-11-23T09:28:41.227Z,3.00
2018-11-23T09:31:09.369Z,3.20
2018-11-23T09:33:37.514Z,3.20
2018-11-23T09:36:05.614Z,3.20
2018-11-23T09:38:33.800Z,3.20
2018-11-23T09:41:01.892Z,3.50
2018-11-23T09:43:30.130Z,3.40
2018-11-23T09:45:58.472Z,3.50
2018-11-23T09:48:26.754Z,3.70
2018-11-23T09:50:55.233Z,3.70
2018-11-23T09:53:23.313Z,3.90
2018-11-23T09:55:51.458Z,3.80
2018-11-23T09:58:19.577Z,3.70
2018-11-23T10:00:47.835Z,4.60
2018-11-23T10:03:15.923Z,4.40
2018-11-23T10:05:44.153Z,5.30
2018-11-23T10:08:12.302Z,5.90
2018-11-23T10:10:40.409Z,5.70
2018-11-23T10:13:08.483Z,4.60
2018-11-23T10:15:36.670Z,4.00
2018-11-23T10:18:05.973Z,4.30
2018-11-23T10:20:34.826Z,4.40
2018-11-23T10:23:03.223Z,4.20
2018-11-23T10:25:32.800Z,4.40
2018-11-23T10:28:01.221Z,4.70
2018-11-23T10:30:30.808Z,4.50
2018-11-23T10:33:00.392Z,4.60
2018-11-23T10:35:28.771Z,4.40
2018-11-23T10:37:58.686Z,4.50
2018-11-23T10:40:30.117Z,5.20
2018-11-23T10:42:58.418Z,5.20
2018-11-23T10:45:28.024Z,5.10
2018-11-23T10:47:57.405Z,5.70
2018-11-23T10:50:28.070Z,5.10
2018-11-23T10:52:56.604Z,5.40
2018-11-23T10:55:26.619Z,5.40
2018-11-23T10:57:55.052Z,5.40
2018-11-23T11:00:28.929Z,5.70
2018-11-23T11:03:07.899Z,5.60
2018-11-23T11:05:36.061Z,5.40
2018-11-23T11:08:05.038Z,5.70
2018-11-23T11:10:33.870Z,5.20
2018-11-23T11:13:02.075Z,5.60
2018-11-23T11:15:30.290Z,6.20
2018-11-23T11:17:58.437Z,5.90
2018-11-23T11:20:26.757Z,6.20
2018-11-23T11:23:00.185Z,6.30
2018-11-23T11:25:28.360Z,5.70
2018-11-23T11:27:57.456Z,5.80
2018-11-23T11:30:25.726Z,5.70
2018-11-23T11:32:53.977Z,6.20
2018-11-23T11:35:22.187Z,6.40
2018-11-23T11:37:50.452Z,6.10
2018-11-23T11:40:19.392Z,6.20
2018-11-23T11:42:47.545Z,7.20
2018-11-23T11:45:17.352Z,7.40
2018-11-23T11:47:46.195Z,7.80
2018-11-23T11:50:14.791Z,6.10
2018-11-23T11:52:44.492Z,6.60
2018-11-23T11:55:14.683Z,6.00
2018-11-23T11:57:43.487Z,6.60
2018-11-23T12:00:13.864Z,6.80
2018-11-23T12:02:42.069Z,6.40
2018-11-23T12:05:11.510Z,6.50
2018-11-23T12:07:40.082Z,6.70
2018-11-23T12:10:15.104Z,6.60
2018-11-23T12:12:43.556Z,6.90
2018-11-23T12:15:12.812Z,6.80
2018-11-23T12:17:41.391Z,7.00
2018-11-23T12:20:17.625Z,7.40
2018-11-23T12:22:46.289Z,7.30
2018-11-23T12:25:14.762Z,6.90
2018-11-23T12:27:43.126Z,6.70
2018-11-23T12:30:14.247Z,7.00
2018-11-23T12:32:43.617Z,6.50
2018-11-23T12:35:13.435Z,6.70
2018-11-23T12:37:41.726Z,6.60
2018-11-23T12:40:12.158Z,7.10
2018-11-23T12:42:40.542Z,7.30
2018-11-23T12:45:14.560Z,7.70
2018-11-23T12:47:42.894Z,7.70
2018-11-23T12:50:14.616Z,7.60
2018-11-23T12:52:42.960Z,7.70
2018-11-23T12:55:12.143Z,7.40
2018-11-23T12:57:40.649Z,7.70
2018-11-23T13:00:20.822Z,7.90
2018-11-23T13:02:51.260Z,8.30
2018-11-23T13:05:23.982Z,7.30
2018-11-23T13:07:52.953Z,7.50
2018-11-23T13:10:22.161Z,7.30
2018-11-23T13:12:50.872Z,7.30
2018-11-23T13:15:19.292Z,7.50
2018-11-23T13:17:47.629Z,7.50
2018-11-23T13:20:16.058Z,7.90
2018-11-23T13:22:44.447Z,7.80
2018-11-23T13:25:15.876Z,8.50
2018-11-23T13:27:44.169Z,8.60
2018-11-23T13:30:16.993Z,9.10
2018-11-23T13:32:45.614Z,9.30
2018-11-23T13:35:16.639Z,8.20
2018-11-23T13:37:44.950Z,8.30
2018-11-23T13:40:17.314Z,8.50
2018-11-23T13:42:47.449Z,8.80
2018-11-23T13:45:17.929Z,8.00
2018-11-23T13:47:46.485Z,8.40
2018-11-23T13:50:16.699Z,7.70
2018-11-23T13:52:45.809Z,8.00
2018-11-23T13:55:14.460Z,8.30
2018-11-23T13:57:42.675Z,8.00
2018-11-23T14:00:18.781Z,8.20
2018-11-23T14:02:47.222Z,7.90
2018-11-23T14:05:16.892Z,7.70
2018-11-23T14:07:46.472Z,7.20
2018-11-23T14:10:16.293Z,7.50
2018-11-23T14:12:44.987Z,7.20
2018-11-23T14:15:31.070Z,7.20
2018-11-23T14:18:02.056Z,7.60
2018-11-23T14:20:30.687Z,8.20
2018-11-23T14:22:58.867Z,7.70
2018-11-23T14:25:28.891Z,7.50
2018-11-23T14:27:57.488Z,7.80
2018-11-23T14:30:29.459Z,7.60
2018-11-23T14:32:57.972Z,7.00
2018-11-23T14:35:27.862Z,6.70
2018-11-23T14:37:56.751Z,7.20
2018-11-23T14:40:25.046Z,7.30
2018-11-23T14:42:54.079Z,7.60
2018-11-23T14:45:25.326Z,7.10
2018-11-23T14:47:54.856Z,7.40
2018-11-23T14:50:24.701Z,7.40
2018-11-23T14:52:53.810Z,6.90
2018-11-23T14:55:22.238Z,6.50
2018-11-23T14:57:50.435Z,6.50
2018-11-23T15:00:22.953Z,6.30
2018-11-23T15:02:54.779Z,6.60
2018-11-23T15:05:23.282Z,6.60
2018-11-23T15:07:51.516Z,6.30
2018-11-23T15:10:21.413Z,6.60
2018-11-23T15:12:50.823Z,6.00
2018-11-23T15:15:20.428Z,6.20
2018-11-23T15:17:49.632Z,6.20
2018-11-23T15:20:20.443Z,5.90
2018-11-23T15:22:56.477Z,5.50
2018-11-23T15:25:24.852Z,5.60
2018-11-23T15:27:53.349Z,5.50
2018-11-23T15:30:23.959Z,5.60
2018-11-23T15:32:52.205Z,5.10
2018-11-23T15:35:21.010Z,5.10
2018-11-23T15:37:49.684Z,4.80
2018-11-23T15:40:23.277Z,4.90
2018-11-23T15:42:53.201Z,4.90
2018-11-23T15:45:22.611Z,5.10
2018-11-23T15:47:50.977Z,4.90
2018-11-23T15:50:21.110Z,5.20
2018-11-23T15:52:49.402Z,5.00
2018-11-23T15:55:23.248Z,4.60
2018-11-23T15:57:52.549Z,4.50
2018-11-23T16:00:24.170Z,4.30
2018-11-23T16:02:52.965Z,4.50
2018-11-23T16:05:21.578Z,4.30
2018-11-23T16:07:51.269Z,4.60
2018-11-23T16:10:25.367Z,4.60
2018-11-23T16:12:55.655Z,4.70
2018-11-23T16:15:24.584Z,4.90
2018-11-23T16:17:54.129Z,5.30
2018-11-23T16:20:26.332Z,5.20
2018-11-23T16:22:57.160Z,5.30
2018-11-23T16:25:25.354Z,5.40
2018-11-23T16:27:57.962Z,5.40
2018-11-23T16:30:27.822Z,5.30
2018-11-23T16:32:57.343Z,5.30
2018-11-23T16:35:26.735Z,4.90
2018-11-23T16:37:55.938Z,4.70
2018-11-23T16:40:27.687Z,4.50
2018-11-23T16:42:56.901Z,4.50
2018-11-23T16:45:27.863Z,4.50
2018-11-23T16:47:57.477Z,5.00
2018-11-23T16:50:26.334Z,4.60
2018-11-23T16:52:55.911Z,4.90
2018-11-23T16:55:24.531Z,4.80
2018-11-23T16:57:55.708Z,4.90
2018-11-23T17:00:26.385Z,4.70
2018-11-23T17:02:55.966Z,4.60
2018-11-23T17:05:26.397Z,4.60
2018-11-23T17:07:54.782Z,4.90
2018-11-23T17:10:23.462Z,4.80
2018-11-23T17:12:51.769Z,4.80
2018-11-23T17:15:21.496Z,4.90
2018-11-23T17:17:49.771Z,4.70
2018-11-23T17:20:20.204Z,4.90
2018-11-23T17:22:52.873Z,4.60
2018-11-23T17:25:23.794Z,5.30
2018-11-23T17:27:52.954Z,4.90
2018-11-23T17:30:25.410Z,5.00
2018-11-23T17:32:54.899Z,4.90
2018-11-23T17:35:23.278Z,5.00
2018-11-23T17:37:51.486Z,4.90
2018-11-23T17:40:21.980Z,4.90
2018-11-23T17:42:50.262Z,4.90
2018-11-23T17:45:25.474Z,5.00
2018-11-23T17:47:54.324Z,4.80
2018-11-23T17:50:23.921Z,4.90
2018-11-23T17:52:52.384Z,4.90
2018-11-23T17:55:21.281Z,5.00
2018-11-23T17:57:50.518Z,4.80
2018-11-23T18:00:28.543Z,4.50
2018-11-23T18:02:57.709Z,4.60
2018-11-23T18:05:26.583Z,4.80
2018-11-23T18:07:54.915Z,4.70
2018-11-23T18:10:24.471Z,4.60
2018-11-23T18:12:53.411Z,4.30
2018-11-23T18:15:24.767Z,4.80
2018-11-23T18:17:54.103Z,4.80
2018-11-23T18:20:24.340Z,4.80
2018-11-23T18:22:53.499Z,4.50
2018-11-23T18:25:30.068Z,4.60
2018-11-23T18:28:01.346Z,5.10
2018-11-23T18:30:31.252Z,4.90
2018-11-23T18:33:01.461Z,4.90
2018-11-23T18:35:29.824Z,5.00
2018-11-23T18:37:58.478Z,5.00
2018-11-23T18:40:27.263Z,5.00
2018-11-23T18:42:55.782Z,4.70
2018-11-23T18:45:24.935Z,4.60
2018-11-23T18:47:53.397Z,4.50
2018-11-23T18:50:21.747Z,4.70
2018-11-23T18:52:50.279Z,4.90
2018-11-23T18:55:19.051Z,5.10
2018-11-23T18:57:47.513Z,5.30
2018-11-23T19:00:16.412Z,5.10
2018-11-23T19:02:46.240Z,5.10
2018-11-23T19:05:17.611Z,5.30
2018-11-23T19:07:46.321Z,5.10
2018-11-23T19:10:22.964Z,5.30
2018-11-23T19:12:51.606Z,4.90
2018-11-23T19:15:25.712Z,4.80
2018-11-23T19:17:58.854Z,4.70
2018-11-23T19:20:27.298Z,4.50
2018-11-23T19:22:56.068Z,5.20
2018-11-23T19:25:24.761Z,5.10
2018-11-23T19:27:53.240Z,4.70
2018-11-23T19:30:28.582Z,4.80
2018-11-23T19:32:52.621Z,4.90
2018-11-23T19:35:21.146Z,4.50
2018-11-23T19:37:49.766Z,5.00
2018-11-23T19:42:57.249Z,5.00
2018-11-23T19:45:26.372Z,5.00
2018-11-23T19:47:55.194Z,5.30
2018-11-23T19:50:23.725Z,5.20
2018-11-23T19:52:52.170Z,4.90
2018-11-23T19:55:20.769Z,5.10
2018-11-23T19:57:49.252Z,5.30
2018-11-23T20:00:22.667Z,5.20
2018-11-23T20:02:51.081Z,5.20
2018-11-23T20:05:19.682Z,4.60
2018-11-23T20:07:51.271Z,4.60
2018-11-23T20:10:22.047Z,4.90
2018-11-23T20:12:53.427Z,5.10
2018-11-23T20:15:21.797Z,5.10
2018-11-23T20:17:50.183Z,4.80
2018-11-23T20:20:18.584Z,4.90
2018-11-23T20:22:48.926Z,5.10
2018-11-23T20:25:18.977Z,5.10
2018-11-23T20:27:48.970Z,4.70
2018-11-23T20:30:18.462Z,4.90
2018-11-23T20:32:46.832Z,5.00
2018-11-23T20:35:18.252Z,5.10
2018-11-23T20:37:46.559Z,5.00
2018-11-23T20:40:17.466Z,4.70
2018-11-23T20:42:45.838Z,4.70
2018-11-23T20:45:14.809Z,4.80
2018-11-23T20:47:43.164Z,5.00
2018-11-23T20:50:13.974Z,5.10
2018-11-23T20:52:42.331Z,5.00
2018-11-23T20:55:14.817Z,4.70
2018-11-23T20:57:43.226Z,4.80
2018-11-23T21:00:16.137Z,4.90
2018-11-23T21:02:45.687Z,5.10
2018-11-23T21:05:15.688Z,4.60
2018-11-23T21:07:44.077Z,5.10
2018-11-23T21:10:20.204Z,4.50
2018-11-23T21:12:45.264Z,4.80
2018-11-23T21:15:26.855Z,4.90
2018-11-23T21:17:56.315Z,4.90
2018-11-23T21:20:24.747Z,4.80
2018-11-23T21:22:53.193Z,5.00
2018-11-23T21:25:21.530Z,4.60
2018-11-23T21:27:49.770Z,4.60
2018-11-23T21:30:19.954Z,5.10
2018-11-23T21:32:48.443Z,4.50
2018-11-23T21:35:16.993Z,4.90
2018-11-23T21:37:45.309Z,5.00
2018-11-23T21:40:16.226Z,5.00
2018-11-23T21:42:44.638Z,4.80
2018-11-23T21:45:16.082Z,4.70
2018-11-23T21:47:44.397Z,4.70
2018-11-23T21:50:16.715Z,5.30
2018-11-23T21:52:45.132Z,4.40
2018-11-23T21:55:16.907Z,4.50
2018-11-23T21:57:45.248Z,4.90
2018-11-23T22:00:15.562Z,4.60
2018-11-23T22:02:43.992Z,4.70
2018-11-23T22:05:12.461Z,4.90
2018-11-23T22:07:40.899Z,4.50
2018-11-23T22:10:16.650Z,4.30
2018-11-23T22:12:45.133Z,4.40
2018-11-23T22:15:24.548Z,4.80
2018-11-23T22:17:55.324Z,5.00
2018-11-23T22:20:24.512Z,4.70
2018-11-23T22:22:52.819Z,4.90
2018-11-23T22:25:22.275Z,4.50
2018-11-23T22:27:50.692Z,4.70
2018-11-23T22:30:28.590Z,4.80
2018-11-23T22:32:57.039Z,4.80
2018-11-23T22:35:26.270Z,4.90
2018-11-23T22:37:54.537Z,4.00
2018-11-23T22:40:22.910Z,4.30
2018-11-23T22:42:53.244Z,4.10
2018-11-23T22:45:21.598Z,4.50
2018-11-23T22:47:49.912Z,4.60
2018-11-23T22:50:20.297Z,4.50
2018-11-23T22:52:48.725Z,4.40
2018-11-23T22:55:18.232Z,4.20
2018-11-23T22:57:46.474Z,4.40
2018-11-23T23:00:22.122Z,4.00
2018-11-23T23:02:50.546Z,4.10
2018-11-23T23:05:20.631Z,4.10
2018-11-23T23:07:48.899Z,4.00
2018-11-23T23:10:17.190Z,4.10
2018-11-23T23:12:45.342Z,4.20
2018-11-23T23:15:13.640Z,4.30
2018-11-23T23:17:42.110Z,4.20
2018-11-23T23:20:16.026Z,3.70
2018-11-23T23:22:44.276Z,4.10
2018-11-23T23:25:13.002Z,4.20
2018-11-23T23:27:41.286Z,4.20
2018-11-23T23:30:14.722Z,4.00
2018-11-23T23:32:43.068Z,4.10
2018-11-23T23:35:12.791Z,4.10
2018-11-23T23:37:41.314Z,3.80
2018-11-23T23:40:12.350Z,4.00
2018-11-23T23:42:40.604Z,4.30
2018-11-23T23:45:10.550Z,4.20
2018-11-23T23:47:38.683Z,4.00
2018-11-23T23:50:12.666Z,4.20
2018-11-23T23:52:40.950Z,4.00
2018-11-23T23:55:09.865Z,4.10
2018-11-23T23:57:47.652Z,3.90
